Time;durP1;ratioP1;P1;durP2;ratioP2;P2;SDS_P1;SDS_P2;PMS_P1;PMS_P2;Temp;Humidity;BMP_temperature;BMP_pressure;BME280_temperature;BME280_humidity;BME280_pressure;Samples;Min_cycle;Max_cycle;Signal;HPM_P1;HPM_P2
2022/06/06 00:00:01;;;;;;;1.13;0.97;;;;;;;17.62;76.00;98918.03;5154608;27;42742;-78
2022/06/06 00:02:30;;;;;;;1.77;1.00;;;;;;;17.64;76.43;98916.13;5139677;27;43489;-78
2022/06/06 00:04:58;;;;;;;0.80;0.80;;;;;;;17.71;75.94;98911.88;5157319;27;40291;-78
2022/06/06 00:07:26;;;;;;;0.90;0.90;;;;;;;17.81;75.91;98912.72;5139953;27;40459;-79
2022/06/06 00:09:54;;;;;;;1.47;0.83;;;;;;;17.89;75.64;98910.22;5157114;27;44369;-79
2022/06/06 00:12:23;;;;;;;1.60;0.80;;;;;;;18.02;75.11;98909.94;5156873;27;42171;-78
2022/06/06 00:14:51;;;;;;;1.00;1.00;;;;;;;18.09;74.56;98911.91;5140217;27;38832;-78
2022/06/06 00:17:19;;;;;;;0.90;0.90;;;;;;;18.18;74.53;98911.03;5139740;27;40636;-78
2022/06/06 00:19:46;;;;;;;0.90;0.90;;;;;;;18.20;74.07;98897.50;5175883;27;43830;-79
2022/06/06 00:22:14;;;;;;;2.13;0.80;;;;;;;18.33;73.80;98913.28;5156941;27;42382;-79
2022/06/06 00:24:42;;;;;;;0.90;0.90;;;;;;;18.37;73.89;98910.19;5157265;27;41138;-78
2022/06/06 00:27:09;;;;;;;1.20;0.97;;;;;;;18.40;73.86;98904.53;5139074;27;40640;-78
2022/06/06 00:29:38;;;;;;;1.10;1.00;;;;;;;18.34;73.46;98883.66;5157116;27;42707;-78
2022/06/06 00:34:53;;;;;;;1.73;1.10;;;;;;;18.50;73.70;98883.06;5153848;27;39725;-79
2022/06/06 00:37:24;;;;;;;1.77;1.20;;;;;;;18.54;73.41;98873.75;5139518;27;40376;-78
2022/06/06 00:39:53;;;;;;;1.33;1.23;;;;;;;18.51;73.49;98874.03;5156804;27;41516;-78
2022/06/06 00:42:24;;;;;;;1.20;1.10;;;;;;;18.50;73.49;98877.69;5156792;27;42327;-78
2022/06/06 00:45:25;;;;;;;1.13;1.03;;;;;;;18.47;73.51;98867.25;5139682;27;40039;-78
2022/06/06 00:47:57;;;;;;;1.10;1.03;;;;;;;18.42;73.62;98866.84;5155054;27;41667;-79
2022/06/06 00:50:32;;;;;;;1.17;1.03;;;;;;;18.43;73.67;98871.19;5139853;27;41881;-78
2022/06/06 00:53:00;;;;;;;1.30;1.03;;;;;;;18.43;73.76;98865.84;5156022;27;41036;-78
2022/06/06 00:55:32;;;;;;;1.20;1.07;;;;;;;18.46;73.94;98860.19;5139271;27;41662;-78
2022/06/06 00:58:05;;;;;;;1.30;1.20;;;;;;;18.47;74.05;98862.72;5155496;27;42649;-79
2022/06/06 01:00:35;;;;;;;2.20;1.30;;;;;;;18.48;73.88;98855.53;5172042;27;43557;-78
2022/06/06 01:03:06;;;;;;;1.33;1.23;;;;;;;18.46;73.85;98855.69;5139133;27;42534;-78
2022/06/06 01:05:36;;;;;;;2.13;1.40;;;;;;;18.30;74.03;98833.97;5153548;27;40176;-78
2022/06/06 01:08:07;;;;;;;1.40;1.20;;;;;;;18.35;74.18;98849.63;5174961;27;42049;-78
2022/06/06 01:10:35;;;;;;;1.20;1.10;;;;;;;18.25;74.34;98842.47;5139351;27;42957;-79
2022/06/06 01:13:06;;;;;;;2.90;1.47;;;;;;;18.17;74.39;98839.69;5174413;27;42048;-78
2022/06/06 01:15:54;;;;;;;1.30;1.10;;;;;;;18.11;74.46;98844.75;5156289;27;39112;-78
2022/06/06 01:18:33;;;;;;;1.13;1.13;;;;;;;17.98;74.33;98834.34;5138409;27;41778;-78
2022/06/06 01:21:41;;;;;;;2.90;1.47;;;;;;;17.99;74.60;98845.91;5153372;27;42864;-78
2022/06/06 01:24:33;;;;;;;1.47;1.37;;;;;;;17.91;75.10;98843.94;5073354;28;42326;-78
2022/06/06 01:27:17;;;;;;;2.83;1.77;;;;;;;17.88;75.19;98849.56;5150349;27;40030;-78
2022/06/06 01:29:49;;;;;;;1.37;1.27;;;;;;;17.86;74.89;98851.53;5138883;27;42271;-78
2022/06/06 01:32:20;;;;;;;1.53;1.20;;;;;;;17.81;75.07;98843.06;5155910;27;41566;-78
2022/06/06 01:34:50;;;;;;;1.93;1.47;;;;;;;17.80;75.32;98841.41;5152965;27;42456;-78
2022/06/06 01:37:28;;;;;;;1.47;1.27;;;;;;;17.77;75.29;98836.34;5138526;27;39201;-78
2022/06/06 01:39:57;;;;;;;1.30;1.20;;;;;;;17.71;75.51;98831.53;5155921;27;41491;-78
2022/06/06 01:42:31;;;;;;;4.87;1.70;;;;;;;17.67;75.66;98831.00;5174473;27;43722;-78
2022/06/06 01:45:06;;;;;;;1.50;1.40;;;;;;;17.62;75.94;98833.19;5155791;27;42493;-78
2022/06/06 01:47:39;;;;;;;1.57;1.47;;;;;;;17.59;76.26;98837.00;5155372;27;39108;-78
2022/06/06 01:50:08;;;;;;;1.63;1.50;;;;;;;17.45;76.30;98815.97;5138570;27;40765;-78
2022/06/06 01:52:51;;;;;;;1.20;1.10;;;;;;;17.51;76.27;98838.69;5138440;27;41727;-79
2022/06/06 01:55:19;;;;;;;1.50;1.40;;;;;;;17.47;76.50;98840.78;5155718;27;41854;-78
2022/06/06 01:57:48;;;;;;;1.17;1.07;;;;;;;17.44;76.22;98845.56;5157405;27;40166;-78
2022/06/06 02:00:19;;;;;;;1.33;1.23;;;;;;;17.40;76.46;98838.81;5159673;27;41920;-78
2022/06/06 02:02:46;;;;;;;1.27;1.23;;;;;;;17.50;76.25;98845.88;5158967;27;41960;-78
2022/06/06 02:05:15;;;;;;;1.30;1.20;;;;;;;17.47;75.82;98829.22;5141768;27;41211;-78
2022/06/06 02:07:44;;;;;;;2.10;2.00;;;;;;;17.68;76.14;98842.53;5158913;27;40240;-79
2022/06/06 02:10:14;;;;;;;1.70;1.60;;;;;;;17.75;75.87;98840.97;5141559;27;41884;-78
2022/06/06 02:12:43;;;;;;;2.00;1.77;;;;;;;17.73;76.10;98835.75;5177411;27;42739;-78
2022/06/06 02:15:14;;;;;;;1.97;1.80;;;;;;;17.89;75.43;98851.28;5159482;27;42390;-78
2022/06/06 02:17:43;;;;;;;2.67;1.50;;;;;;;17.95;75.74;98856.03;5157593;27;40124;-78
2022/06/06 02:20:14;;;;;;;2.10;1.50;;;;;;;17.99;75.57;98857.47;5141811;27;43453;-78
2022/06/06 02:22:43;;;;;;;1.40;1.30;;;;;;;18.04;74.98;98857.03;5159107;27;42662;-78
2022/06/06 02:25:11;;;;;;;2.10;1.63;;;;;;;18.05;75.06;98854.19;5177696;27;43231;-78
2022/06/06 02:27:40;;;;;;;1.43;1.33;;;;;;;18.01;75.51;98863.53;5141697;27;39061;-78
2022/06/06 02:30:13;;;;;;;1.60;1.50;;;;;;;17.98;75.21;98860.28;5141804;27;41729;-78
2022/06/06 02:32:41;;;;;;;1.53;1.40;;;;;;;17.89;75.56;98862.00;5141222;27;41753;-78
2022/06/06 02:35:14;;;;;;;1.70;1.60;;;;;;;17.80;75.28;98860.16;5158685;27;42124;-78
2022/06/06 02:37:42;;;;;;;1.90;1.80;;;;;;;17.67;75.39;98852.41;5141681;27;39912;-78
2022/06/06 02:40:12;;;;;;;1.80;1.70;;;;;;;17.69;75.92;98865.63;5158582;27;40365;-78
2022/06/06 02:42:40;;;;;;;2.20;2.00;;;;;;;17.73;76.00;98867.06;5158602;27;43506;-78
2022/06/06 02:45:10;;;;;;;1.73;1.63;;;;;;;17.77;76.03;98868.47;5141439;27;41570;-78
2022/06/06 02:47:39;;;;;;;1.80;1.70;;;;;;;17.77;75.88;98865.81;5158182;27;39323;-78
2022/06/06 02:50:10;;;;;;;1.70;1.57;;;;;;;17.78;75.66;98870.16;5141080;27;41757;-78
2022/06/06 02:52:38;;;;;;;1.73;1.63;;;;;;;17.76;75.50;98864.94;5141298;27;41970;-78
2022/06/06 02:55:08;;;;;;;5.13;1.97;;;;;;;17.63;76.02;98867.06;5158697;27;43097;-78
2022/06/06 02:57:38;;;;;;;1.77;1.67;;;;;;;17.59;75.98;98877.16;5141062;27;40005;-79
2022/06/06 03:00:07;;;;;;;1.63;1.53;;;;;;;17.44;76.41;98859.81;5158187;27;41913;-78
2022/06/06 03:02:35;;;;;;;1.90;1.77;;;;;;;17.38;76.18;98867.56;5157894;27;41828;-78
2022/06/06 03:05:03;;;;;;;1.80;1.70;;;;;;;17.36;76.57;98869.53;5158346;27;43506;-79
2022/06/06 03:07:39;;;;;;;2.03;1.93;;;;;;;17.27;76.94;98862.31;5140897;27;41419;-79
2022/06/06 03:10:19;;;;;;;1.80;1.70;;;;;;;17.14;77.90;98855.41;5140391;27;41673;-78
2022/06/06 03:13:02;;;;;;;2.40;2.10;;;;;;;17.17;78.02;98865.00;5156193;27;42712;-78
2022/06/06 03:20:46;;;;;;;2.00;1.90;;;;;;;17.13;78.22;98863.56;5158089;27;40869;-78
2022/06/06 03:21:40;;;;;;;3.30;2.33;;;;;;;16.95;78.35;98847.31;5158374;27;41395;-78
2022/06/06 03:24:37;;;;;;;2.60;2.40;;;;;;;17.01;78.65;98868.19;5140744;27;44213;-79
2022/06/06 03:27:19;;;;;;;2.20;2.10;;;;;;;16.97;79.50;98879.28;5155626;27;42303;-78
2022/06/06 03:30:03;;;;;;;2.90;2.70;;;;;;;16.92;79.74;98885.06;5173496;27;41012;-78
2022/06/06 03:32:45;;;;;;;3.13;2.07;;;;;;;16.94;79.44;98901.78;5155868;27;42490;-78
2022/06/06 03:35:23;;;;;;;2.50;2.30;;;;;;;16.64;79.27;98861.69;5140925;27;41651;-78
2022/06/06 03:37:58;;;;;;;2.57;2.37;;;;;;;16.94;79.10;98911.66;5140825;27;41755;-78
2022/06/06 03:40:38;;;;;;;2.70;2.50;;;;;;;16.95;79.26;98913.34;5158065;27;38864;-78
2022/06/06 03:43:14;;;;;;;3.23;2.90;;;;;;;16.95;79.45;98913.34;5140430;27;43692;-78
2022/06/06 03:45:50;;;;;;;3.67;2.27;;;;;;;16.96;79.24;98915.03;5140789;27;41845;-78
2022/06/06 03:48:35;;;;;;;3.20;2.40;;;;;;;16.96;79.56;98918.56;5139771;27;42529;-78
2022/06/06 03:51:10;;;;;;;2.27;2.07;;;;;;;16.90;78.98;98905.72;5173486;27;39909;-79
2022/06/06 03:53:46;;;;;;;2.57;2.23;;;;;;;17.02;79.18;98919.88;5157149;27;40740;-79
2022/06/06 03:56:26;;;;;;;2.67;2.10;;;;;;;16.95;78.90;98902.63;5154572;27;42671;-78
2022/06/06 03:58:55;;;;;;;2.33;2.17;;;;;;;17.06;78.52;98922.09;5176181;27;43161;-78
2022/06/06 04:01:24;;;;;;;2.90;1.90;;;;;;;17.11;78.38;98919.88;5157770;27;40661;-78
2022/06/06 04:03:54;;;;;;;2.33;2.10;;;;;;;17.14;78.50;98924.13;5176015;27;41879;-79
2022/06/06 04:06:22;;;;;;;2.30;2.10;;;;;;;17.17;78.23;98927.38;5157531;27;42695;-78
2022/06/06 04:08:50;;;;;;;2.67;2.47;;;;;;;17.23;78.70;98923.31;5140194;27;40938;-78
2022/06/06 04:11:38;;;;;;;2.87;2.57;;;;;;;17.27;78.78;98919.38;5176191;27;40033;-78
2022/06/06 04:14:23;;;;;;;2.33;2.13;;;;;;;17.34;78.50;98925.88;5157312;27;41786;-78
2022/06/06 04:17:01;;;;;;;3.50;2.20;;;;;;;17.33;78.42;98912.63;5139995;27;43274;-78
2022/06/06 04:19:44;;;;;;;2.50;2.30;;;;;;;17.43;78.10;98924.22;5153647;27;43216;-78
2022/06/06 04:22:19;;;;;;;3.13;2.60;;;;;;;17.44;77.53;98921.38;5139651;27;39836;-78
2022/06/06 04:25:02;;;;;;;2.27;2.17;;;;;;;17.66;77.79;98932.91;5139846;27;42897;-78
2022/06/06 04:27:40;;;;;;;2.20;2.00;;;;;;;17.78;77.09;98950.53;5139588;27;42907;-79
2022/06/06 04:30:18;;;;;;;3.07;2.77;;;;;;;17.80;76.92;98924.47;5139593;27;41222;-78
2022/06/06 04:32:56;;;;;;;2.53;2.27;;;;;;;18.03;76.59;98939.28;5155317;27;40747;-78
2022/06/06 04:35:30;;;;;;;2.50;2.30;;;;;;;18.10;76.14;98944.91;5172423;27;41818;-78
2022/06/06 04:38:08;;;;;;;2.73;2.53;;;;;;;18.06;76.23;98927.41;5139008;27;45024;-78
2022/06/06 04:40:43;;;;;;;1.80;1.70;;;;;;;18.21;76.14;98952.81;5139219;27;43722;-78
2022/06/06 04:43:18;;;;;;;2.40;2.20;;;;;;;18.27;76.07;98958.47;5155618;27;39810;-78
2022/06/06 04:45:52;;;;;;;2.63;2.17;;;;;;;18.35;75.55;98944.34;5156257;27;40667;-78
2022/06/06 04:48:22;;;;;;;2.27;2.07;;;;;;;18.43;75.64;98943.59;5138561;27;41760;-78
2022/06/06 04:50:51;;;;;;;3.67;2.10;;;;;;;18.48;75.15;98942.19;5156249;27;42343;-77
2022/06/06 04:53:22;;;;;;;2.40;2.20;;;;;;;18.54;75.10;98940.78;5156140;27;39895;-78
2022/06/06 04:55:51;;;;;;;2.53;2.30;;;;;;;18.72;75.09;98960.53;5139219;27;41865;-78
2022/06/06 04:58:22;;;;;;;2.83;2.40;;;;;;;18.76;74.73;98953.06;5174619;27;42986;-78
2022/06/06 05:00:51;;;;;;;2.40;2.20;;;;;;;18.90;74.52;98956.13;5156338;27;41161;-78
2022/06/06 05:03:18;;;;;;;5.03;3.23;;;;;;;18.96;74.36;98950.16;5156064;27;39219;-78
2022/06/06 05:06:00;;;;;;;3.83;2.57;;;;;;;19.09;73.97;98954.34;5156442;27;40679;-78
2022/06/06 05:08:48;;;;;;;2.87;2.63;;;;;;;19.18;73.79;98959.66;5156427;27;42164;-78
2022/06/06 05:11:32;;;;;;;3.50;3.20;;;;;;;19.25;73.48;98954.56;5153146;27;43202;-78
2022/06/06 05:14:25;;;;;;;3.10;2.80;;;;;;;19.52;73.24;98967.19;5138828;27;41245;-78
2022/06/06 05:17:30;;;;;;;3.03;2.60;;;;;;;19.82;72.29;98968.69;5155845;27;40840;-78
2022/06/06 05:20:27;;;;;;;2.27;2.13;;;;;;;20.15;71.52;98969.91;5156275;27;41655;-80
2022/06/06 05:23:15;;;;;;;2.30;2.10;;;;;;;20.43;70.56;98975.03;5118490;27;41373;-78
2022/06/06 05:25:55;;;;;;;2.73;2.53;;;;;;;20.32;70.44;98934.91;5156274;27;39572;-78
2022/06/06 05:28:47;;;;;;;2.93;2.67;;;;;;;20.64;70.16;98976.56;5155538;27;41796;-78
2022/06/06 05:31:30;;;;;;;3.03;2.80;;;;;;;20.64;69.53;98981.97;5136125;27;42836;-78
2022/06/06 05:34:05;;;;;;;2.90;2.70;;;;;;;20.68;69.43;98978.78;5159882;27;43185;-78
2022/06/06 05:37:01;;;;;;;4.70;2.70;;;;;;;20.74;69.27;98985.41;5143049;27;39125;-77
2022/06/06 05:39:49;;;;;;;4.57;2.83;;;;;;;20.71;69.05;98983.84;5175186;27;41641;-79
2022/06/06 05:42:30;;;;;;;3.03;2.77;;;;;;;20.74;68.67;98980.84;5159553;27;43348;-79
2022/06/06 05:45:11;;;;;;;3.03;2.73;;;;;;;20.76;68.83;98981.53;5142532;27;42010;-78
2022/06/06 05:47:51;;;;;;;4.73;3.03;;;;;;;20.74;68.70;98986.25;5142269;27;39599;-78
2022/06/06 05:50:42;;;;;;;3.50;3.20;;;;;;;20.80;68.67;98982.06;5142450;27;42176;-79
2022/06/06 05:53:32;;;;;;;6.30;3.50;;;;;;;21.02;67.78;98978.00;5159935;27;43144;-78
2022/06/06 05:56:15;;;;;;;3.20;2.90;;;;;;;21.02;67.30;98967.22;5133764;27;42307;-79
2022/06/06 05:58:59;;;;;;;3.90;3.00;;;;;;;21.05;67.58;98975.81;5159336;27;38896;-78
2022/06/06 06:01:46;;;;;;;3.17;2.87;;;;;;;21.12;67.57;98982.28;5174818;27;42557;-78
2022/06/06 06:04:30;;;;;;;3.50;3.20;;;;;;;21.25;67.50;98975.66;5159553;27;42625;-79
2022/06/06 06:07:08;;;;;;;3.30;3.00;;;;;;;21.45;67.12;98975.22;5159226;27;41059;-78
2022/06/06 06:10:03;;;;;;;2.93;2.60;;;;;;;21.68;66.35;98967.41;5156074;27;40819;-78
2022/06/06 06:12:57;;;;;;;2.90;2.53;;;;;;;21.88;65.81;98978.75;5158425;27;41917;-78
2022/06/06 06:15:32;;;;;;;4.10;2.90;;;;;;;22.05;65.14;98985.06;5174672;27;43829;-78
2022/06/06 06:18:02;;;;;;;3.50;3.20;;;;;;;22.11;64.65;98970.91;5141468;27;42758;-79
2022/06/06 06:20:36;;;;;;;3.47;3.17;;;;;;;22.41;64.31;98997.25;5159359;27;40068;-79
2022/06/06 06:23:05;;;;;;;3.10;2.80;;;;;;;22.66;63.67;98992.69;5158785;27;40938;-79
2022/06/06 06:25:35;;;;;;;5.40;3.03;;;;;;;22.65;62.99;98984.75;5177950;27;44069;-79
2022/06/06 06:28:07;;;;;;;3.50;3.23;;;;;;;22.69;62.95;98988.81;5141509;27;42414;-80
2022/06/06 06:30:58;;;;;;;4.23;3.93;;;;;;;22.71;62.02;98986.78;5141668;27;38881;-79
2022/06/06 06:33:42;;;;;;;3.90;3.20;;;;;;;22.71;61.93;98987.66;5158639;27;41932;-79
2022/06/06 06:36:26;;;;;;;3.40;3.10;;;;;;;22.79;62.19;98986.81;5141697;27;42231;-78
2022/06/06 06:39:18;;;;;;;5.03;3.47;;;;;;;23.22;61.49;98997.22;5158549;27;43848;-79
2022/06/06 06:42:00;;;;;;;3.03;2.73;;;;;;;23.63;60.45;98972.75;5158570;27;38335;-79
2022/06/06 06:44:34;;;;;;;2.90;2.57;;;;;;;24.14;59.15;99002.91;5155928;27;41728;-79
2022/06/06 06:47:11;;;;;;;2.70;2.47;;;;;;;24.36;58.00;99009.44;5156251;27;43515;-79
2022/06/06 06:49:44;;;;;;;4.90;3.10;;;;;;;24.38;58.03;98999.25;5174400;27;43622;-79
2022/06/06 06:52:31;;;;;;;2.83;2.63;;;;;;;24.58;57.28;99006.72;5175292;27;39686;-79
2022/06/06 06:55:11;;;;;;;3.33;3.03;;;;;;;24.62;57.72;99021.56;5141835;27;42098;-79
2022/06/06 06:58:00;;;;;;;3.10;2.50;;;;;;;24.55;57.23;99001.66;5140925;27;41531;-79
2022/06/06 07:00:38;;;;;;;3.10;2.90;;;;;;;24.93;56.24;99021.50;5141117;27;41082;-79
2022/06/06 07:09:15;;;;;;;2.97;2.77;;;;;;;26.08;52.24;99025.50;5158225;27;42881;-79
2022/06/06 07:11:56;;;;;;;3.33;3.03;;;;;;;26.56;51.61;99035.84;5158238;27;41215;-79
2022/06/06 07:14:39;;;;;;;2.97;2.77;;;;;;;26.77;50.34;99049.44;5158492;27;39159;-79
2022/06/06 07:17:11;;;;;;;3.13;2.83;;;;;;;26.66;49.99;99045.34;5155643;27;42600;-78
2022/06/06 07:19:42;;;;;;;2.53;2.33;;;;;;;26.19;51.02;99037.72;5158430;27;42618;-79
2022/06/06 07:22:11;;;;;;;3.33;2.47;;;;;;;25.97;51.57;99030.53;5140474;27;44251;-79
2022/06/06 07:24:43;;;;;;;3.00;2.70;;;;;;;25.74;52.92;99022.53;5177052;27;39790;-80
2022/06/06 07:27:11;;;;;;;4.30;2.80;;;;;;;25.54;52.33;99029.53;5174059;27;42341;-79
2022/06/06 07:29:39;;;;;;;3.03;2.73;;;;;;;25.48;51.95;99035.69;5176699;27;42615;-79
2022/06/06 07:32:33;;;;;;;2.80;2.57;;;;;;;25.51;51.71;99029.91;5140155;27;42241;-79
2022/06/06 07:35:11;;;;;;;3.20;2.90;;;;;;;25.56;52.32;99027.47;5154990;27;40126;-79
2022/06/06 07:37:57;;;;;;;4.00;2.23;;;;;;;25.55;51.83;99031.22;5156059;27;42666;-79
2022/06/06 07:40:36;;;;;;;4.27;2.90;;;;;;;25.38;53.33;99020.53;5155274;27;43655;-78
2022/06/06 07:43:19;;;;;;;2.70;2.50;;;;;;;25.10;53.21;99022.19;5157404;27;42157;-79
2022/06/06 07:45:49;;;;;;;3.20;2.90;;;;;;;24.62;53.54;99001.75;5155148;27;40814;-79
2022/06/06 07:48:46;;;;;;;3.40;3.10;;;;;;;24.39;53.38;99012.59;5176043;27;41734;-79
2022/06/06 07:51:21;;;;;;;3.27;2.97;;;;;;;24.21;53.75;99014.72;5157384;27;45185;-79
2022/06/06 07:54:00;;;;;;;3.93;2.80;;;;;;;24.10;54.44;99001.63;5140115;27;42425;-79
2022/06/06 07:56:39;;;;;;;3.77;3.17;;;;;;;24.05;54.96;99004.84;5156775;27;40894;-79
2022/06/06 07:59:18;;;;;;;3.03;2.80;;;;;;;24.10;55.23;98996.19;5160486;27;41977;-79
2022/06/06 08:01:54;;;;;;;2.97;2.67;;;;;;;24.21;55.21;98974.97;5166016;27;41896;-79
2022/06/06 08:04:27;;;;;;;2.90;2.70;;;;;;;24.80;54.50;98996.03;5167447;27;41352;-78
2022/06/06 08:07:06;;;;;;;3.47;3.07;;;;;;;25.79;52.67;99001.09;5141118;27;39238;-79
2022/06/06 08:10:02;;;;;;;3.13;2.80;;;;;;;27.79;48.77;99017.16;5149804;27;40868;-79
2022/06/06 08:12:46;;;;;;;3.03;2.70;;;;;;;28.62;44.62;99040.50;5163267;27;42751;-80
2022/06/06 08:15:23;;;;;;;2.67;2.47;;;;;;;29.78;43.48;99041.78;5157235;27;42758;-80
2022/06/06 08:18:14;;;;;;;2.60;2.40;;;;;;;30.31;40.93;99058.78;5156104;27;40090;-79
2022/06/06 08:20:49;;;;;;;2.83;2.63;;;;;;;30.08;41.30;99042.09;5175145;27;42699;-80
2022/06/06 08:23:18;;;;;;;2.30;2.10;;;;;;;29.40;41.64;99047.09;5155824;27;42802;-79
2022/06/06 08:25:50;;;;;;;2.90;2.60;;;;;;;28.63;43.56;99030.44;5157000;27;41141;-77
2022/06/06 08:28:21;;;;;;;2.93;2.73;;;;;;;28.41;43.59;99021.63;5156091;27;39687;-79
2022/06/06 08:30:49;;;;;;;4.07;3.00;;;;;;;28.71;43.33;99022.06;5172597;27;42837;-78
2022/06/06 08:33:16;;;;;;;2.93;2.50;;;;;;;29.08;42.49;99029.66;5174746;27;42779;-79
2022/06/06 08:35:58;;;;;;;2.87;2.67;;;;;;;29.14;42.32;99028.00;5139671;27;42487;-80
2022/06/06 08:38:40;;;;;;;2.83;2.40;;;;;;;29.05;42.26;99032.00;5135616;27;41149;-79
2022/06/06 08:41:25;;;;;;;2.57;2.37;;;;;;;29.08;42.45;99018.75;5155244;27;42701;-79
2022/06/06 08:44:23;;;;;;;2.80;2.60;;;;;;;28.99;42.36;99022.75;5160941;27;43809;-79
2022/06/06 08:47:02;;;;;;;2.80;2.60;;;;;;;28.86;42.81;99020.00;5133415;27;40729;-78
2022/06/06 08:53:12;;;;;;;3.00;2.57;;;;;;;27.84;42.97;99018.22;5145709;27;41438;-79
2022/06/06 08:56:05;;;;;;;2.20;1.90;;;;;;;27.64;44.16;99013.72;5147451;27;42786;-79
2022/06/06 08:59:13;;;;;;;3.37;2.27;;;;;;;27.49;44.44;99027.44;5162039;27;42595;-78
2022/06/06 09:02:10;;;;;;;2.03;1.93;;;;;;;27.83;43.07;99030.16;5106806;27;40145;-79
2022/06/06 09:05:09;;;;;;;2.13;2.03;;;;;;;28.76;42.16;99030.47;5153736;27;42098;-79
2022/06/06 09:08:18;;;;;;;2.07;1.97;;;;;;;28.98;40.91;99039.31;5149604;27;43815;-77
2022/06/06 09:10:58;;;;;;;1.80;1.70;;;;;;;29.67;40.01;99045.97;5111315;27;41346;-79
2022/06/06 09:14:04;;;;;;;2.10;1.83;;;;;;;29.86;39.40;99038.78;5150412;27;40361;-80
2022/06/06 09:17:10;;;;;;;2.30;2.10;;;;;;;30.23;38.52;99045.41;5150116;27;42953;-79
2022/06/06 09:20:22;;;;;;;2.40;1.90;;;;;;;30.18;38.29;99034.25;5138580;27;42584;-80
2022/06/06 09:23:18;;;;;;;2.17;1.80;;;;;;;29.84;37.44;99045.50;5101892;27;42183;-77
2022/06/06 09:25:59;;;;;;;2.20;1.50;;;;;;;30.07;37.62;99043.16;5153137;27;40244;-79
2022/06/06 09:29:09;;;;;;;1.60;1.50;;;;;;;30.22;37.79;99024.59;5169244;27;42664;-79
2022/06/06 09:32:15;;;;;;;2.63;1.70;;;;;;;30.30;37.33;99024.31;5152838;27;43609;-79
2022/06/06 09:35:11;;;;;;;1.83;1.73;;;;;;;30.68;36.27;99023.50;5153561;27;43295;-83
2022/06/06 09:37:59;;;;;;;1.73;1.63;;;;;;;32.25;34.48;99049.63;5170691;27;40589;-77
2022/06/06 09:40:35;;;;;;;2.10;1.70;;;;;;;34.14;32.14;99056.81;5148709;27;41965;-79
2022/06/06 09:43:18;;;;;;;1.60;1.50;;;;;;;35.99;29.72;99062.28;5153237;27;42716;-78
2022/06/06 09:46:25;;;;;;;2.37;1.67;;;;;;;37.11;27.63;99069.09;5169339;27;42009;-79
2022/06/06 09:49:34;;;;;;;1.70;1.60;;;;;;;37.75;26.19;99085.66;5149323;27;41806;-79
2022/06/06 09:52:33;;;;;;;1.60;1.50;;;;;;;37.60;26.64;99061.50;5132809;27;42972;-79
2022/06/06 09:59:14;;;;;;;1.63;1.53;;;;;;;38.50;24.84;99078.03;5152933;27;42261;-80
2022/06/06 10:02:23;;;;;;;1.40;1.30;;;;;;;38.07;25.85;99056.00;5155188;27;39848;-80
2022/06/06 10:05:20;;;;;;;2.67;1.90;;;;;;;37.32;26.72;99040.59;5161999;27;41464;-78
2022/06/06 10:08:27;;;;;;;1.77;1.67;;;;;;;35.99;28.79;99022.88;5154588;27;43172;-78
2022/06/06 10:11:31;;;;;;;2.30;1.53;;;;;;;35.53;28.32;99030.47;5114287;27;42416;-80
2022/06/06 10:14:12;;;;;;;1.60;1.50;;;;;;;35.21;28.45;99033.00;5173367;27;40164;-79
2022/06/06 10:16:56;;;;;;;1.90;1.50;;;;;;;34.18;29.55;99017.59;5170040;27;42751;-79
2022/06/06 10:19:44;;;;;;;2.03;1.77;;;;;;;33.49;31.30;98982.88;5154869;27;43493;-79
2022/06/06 10:22:39;;;;;;;3.53;1.70;;;;;;;33.58;29.53;99000.63;5134051;27;44103;-79
2022/06/06 10:25:36;;;;;;;3.03;1.90;;;;;;;33.95;30.28;99005.84;5177837;27;39923;-81
2022/06/06 10:28:22;;;;;;;1.77;1.67;;;;;;;34.18;31.25;99000.28;5173840;27;42322;-77
2022/06/06 10:31:01;;;;;;;1.63;1.30;;;;;;;34.30;31.00;98998.34;5155735;27;42801;-79
2022/06/06 10:33:49;;;;;;;1.90;1.40;;;;;;;34.27;30.79;99012.56;5176492;27;43191;-79
2022/06/06 10:36:40;;;;;;;1.67;1.57;;;;;;;33.56;30.67;99001.94;5158635;27;39819;-79
2022/06/06 10:39:38;;;;;;;2.67;1.50;;;;;;;33.39;30.90;98999.09;5174003;27;41764;-79
2022/06/06 10:42:22;;;;;;;1.70;1.60;;;;;;;32.80;31.38;98999.03;5141014;27;42611;-78
2022/06/06 10:45:16;;;;;;;1.63;1.53;;;;;;;32.76;32.15;98991.53;5158152;27;43297;-79
2022/06/06 10:48:09;;;;;;;1.50;1.40;;;;;;;32.78;31.81;98989.34;5157865;27;40011;-81
2022/06/06 10:54:13;;;;;;;2.33;1.77;;;;;;;32.86;32.01;98997.25;5140690;27;41799;-82
2022/06/06 10:57:02;;;;;;;2.60;1.73;;;;;;;32.72;31.10;98993.91;5158141;27;44418;-82
2022/06/06 10:59:59;;;;;;;1.50;1.40;;;;;;;32.61;29.38;99002.06;5176796;27;40948;-82
2022/06/06 11:03:04;;;;;;;1.67;1.57;;;;;;;32.25;31.78;98990.16;5140222;27;42028;-78
2022/06/06 11:06:15;;;;;;;2.43;1.60;;;;;;;32.22;31.63;98987.88;5158131;27;42706;-80
2022/06/06 11:09:08;;;;;;;1.47;1.37;;;;;;;32.11;32.73;98977.66;5142139;27;42237;-81
2022/06/06 11:12:01;;;;;;;1.80;1.70;;;;;;;32.45;32.60;98973.41;5158204;27;39874;-77
2022/06/06 11:14:32;;;;;;;3.07;1.60;;;;;;;32.63;31.24;98981.56;5118536;27;44014;-77
2022/06/06 11:17:28;;;;;;;1.80;1.70;;;;;;;32.05;29.88;98990.38;5140463;27;42549;-79
2022/06/06 11:20:31;;;;;;;1.67;1.47;;;;;;;32.09;32.78;98961.44;5176260;27;42349;-77
2022/06/06 11:23:03;;;;;;;1.83;1.70;;;;;;;32.44;31.14;98967.09;5139693;27;38641;-82
2022/06/06 11:25:44;;;;;;;1.50;1.40;;;;;;;32.60;32.09;98959.25;5140127;27;41106;-78
2022/06/06 11:29:00;;;;;;;2.17;1.77;;;;;;;32.15;30.86;98961.59;5139637;27;43957;-78
2022/06/06 11:32:03;;;;;;;1.67;1.57;;;;;;;31.58;32.02;98961.03;5153061;27;42239;-80
2022/06/06 11:34:57;;;;;;;2.30;1.43;;;;;;;31.29;32.76;98951.66;5132283;27;40159;-79
2022/06/06 11:38:00;;;;;;;1.63;1.53;;;;;;;31.05;32.49;98956.91;5154553;27;41953;-79
2022/06/06 11:40:46;;;;;;;2.13;1.80;;;;;;;30.84;33.35;98953.75;5131135;27;43325;-78
2022/06/06 11:43:37;;;;;;;2.17;1.70;;;;;;;30.57;33.78;98948.50;5129603;27;43261;-78
2022/06/06 11:46:43;;;;;;;1.80;1.50;;;;;;;30.28;34.35;98954.59;5136254;27;40847;-79
2022/06/06 11:49:44;;;;;;;1.70;1.50;;;;;;;29.83;34.34;98956.47;5070283;28;40726;-80
2022/06/06 11:52:34;;;;;;;1.40;1.30;;;;;;;29.30;35.96;98951.19;5110272;27;42735;-79
2022/06/06 11:55:25;;;;;;;1.50;1.40;;;;;;;29.07;37.53;98946.16;5155040;27;42612;-78
2022/06/06 11:58:25;;;;;;;1.77;1.20;;;;;;;29.81;37.53;98948.47;5160482;27;39971;-79
2022/06/06 12:01:15;;;;;;;1.60;1.30;;;;;;;30.66;36.25;98952.63;5151502;27;42263;-78
2022/06/06 12:04:19;;;;;;;1.83;1.30;;;;;;;30.90;37.01;98947.41;5135035;27;44541;-78
2022/06/06 12:07:26;;;;;;;1.50;1.40;;;;;;;32.04;34.86;98949.50;5154044;27;43131;-80
2022/06/06 12:10:02;;;;;;;1.50;1.40;;;;;;;33.65;33.61;98957.38;5158948;27;40763;-80
2022/06/06 12:13:03;;;;;;;1.60;1.50;;;;;;;36.27;31.39;98970.28;5136977;27;41653;-78
2022/06/06 12:16:03;;;;;;;1.57;1.47;;;;;;;37.71;28.84;98976.75;5172083;27;42928;-81
2022/06/06 12:19:10;;;;;;;1.63;1.53;;;;;;;39.06;27.03;98984.84;5143323;27;43408;-80
2022/06/06 12:21:54;;;;;;;1.40;1.30;;;;;;;37.57;27.19;98989.34;5175084;27;40571;-79
2022/06/06 12:24:57;;;;;;;1.27;1.27;;;;;;;36.13;28.59;98979.19;5139097;27;41879;-78
2022/06/06 12:27:42;;;;;;;1.50;1.40;;;;;;;37.12;29.28;98959.44;5138912;27;41879;-81
2022/06/06 12:30:47;;;;;;;2.60;1.83;;;;;;;37.43;28.36;98966.06;5172041;27;42134;-82
2022/06/06 12:33:19;;;;;;;1.73;1.63;;;;;;;35.81;29.58;98959.78;5155465;27;38907;-81
2022/06/06 12:35:54;;;;;;;1.60;1.50;;;;;;;34.51;30.36;98950.88;5138919;27;41760;-80
2022/06/06 12:38:31;;;;;;;1.73;1.63;;;;;;;33.52;32.64;98949.41;5174109;27;43734;-78
2022/06/06 12:41:16;;;;;;;1.67;1.57;;;;;;;32.59;33.59;98941.13;5171389;27;43146;-78
2022/06/06 12:43:59;;;;;;;1.37;1.27;;;;;;;31.82;35.73;98924.50;5155751;27;43274;-79
2022/06/06 12:46:49;;;;;;;1.50;1.40;;;;;;;31.12;36.76;98915.00;5156450;27;42174;-81
2022/06/06 12:49:48;;;;;;;1.80;1.70;;;;;;;30.46;37.68;98890.94;5156472;27;41479;-79
2022/06/06 12:52:51;;;;;;;1.60;1.50;;;;;;;30.26;37.57;98896.56;5156368;27;41209;-77
2022/06/06 12:55:37;;;;;;;1.70;1.60;;;;;;;30.77;37.61;98898.28;5099210;27;39423;-80
2022/06/06 12:58:36;;;;;;;3.37;1.57;;;;;;;32.01;35.90;98906.97;5138933;27;42082;-79
2022/06/06 13:04:19;;;;;;;2.47;1.60;;;;;;;35.50;30.61;98942.81;5175084;27;42269;-77
2022/06/06 13:07:01;;;;;;;1.93;1.70;;;;;;;34.64;31.57;98938.72;5154093;27;40720;-82